sensor_id;sensor_type;location;lat;lon;timestamp;temperature;humidity
5011;DHT22;2524;54.364;10.072;2022-11-12T00:00:52;12.60;99.90
5011;DHT22;2524;54.364;10.072;2022-11-12T00:03:18;12.50;99.90
5011;DHT22;2524;54.364;10.072;2022-11-12T00:05:45;12.50;99.90
5011;DHT22;2524;54.364;10.072;2022-11-12T00:08:11;12.50;99.90
5011;DHT22;2524;54.364;10.072;2022-11-12T00:13:03;12.50;99.90
5011;DHT22;2524;54.364;10.072;2022-11-12T00:15:29;12.60;99.90
5011;DHT22;2524;54.364;10.072;2022-11-12T00:17:54;12.50;99.90
5011;DHT22;2524;54.364;10.072;2022-11-12T00:20:20;12.50;99.90
5011;DHT22;2524;54.364;10.072;2022-11-12T00:22:45;12.50;99.90
5011;DHT22;2524;54.364;10.072;2022-11-12T00:25:11;12.40;99.90
5011;DHT22;2524;54.364;10.072;2022-11-12T00:27:36;12.40;99.90
5011;DHT22;2524;54.364;10.072;2022-11-12T00:30:03;12.40;99.90
5011;DHT22;2524;54.364;10.072;2022-11-12T00:32:28;12.40;99.90
5011;DHT22;2524;54.364;10.072;2022-11-12T00:34:54;12.40;99.90
5011;DHT22;2524;54.364;10.072;2022-11-12T00:37:20;12.40;99.90
5011;DHT22;2524;54.364;10.072;2022-11-12T00:39:48;12.40;99.90
5011;DHT22;2524;54.364;10.072;2022-11-12T00:42:13;12.40;99.90
5011;DHT22;2524;54.364;10.072;2022-11-12T00:44:39;12.30;99.90
5011;DHT22;2524;54.364;10.072;2022-11-12T00:47:05;12.30;99.90
5011;DHT22;2524;54.364;10.072;2022-11-12T00:49:30;12.20;99.90
5011;DHT22;2524;54.364;10.072;2022-11-12T00:51:56;12.30;99.90
5011;DHT22;2524;54.364;10.072;2022-11-12T00:54:22;12.30;99.90
5011;DHT22;2524;54.364;10.072;2022-11-12T00:56:47;12.40;99.90
5011;DHT22;2524;54.364;10.072;2022-11-12T00:59:13;12.20;99.90
5011;DHT22;2524;54.364;10.072;2022-11-12T01:01:40;12.20;99.90
5011;DHT22;2524;54.364;10.072;2022-11-12T01:04:05;12.20;99.90
5011;DHT22;2524;54.364;10.072;2022-11-12T01:06:31;12.30;99.90
5011;DHT22;2524;54.364;10.072;2022-11-12T01:08:57;12.30;99.90
5011;DHT22;2524;54.364;10.072;2022-11-12T01:11:27;12.40;99.90
5011;DHT22;2524;54.364;10.072;2022-11-12T01:13:59;12.10;99.90
5011;DHT22;2524;54.364;10.072;2022-11-12T01:16:28;12.10;99.90
5011;DHT22;2524;54.364;10.072;2022-11-12T01:18:58;12.20;99.90
5011;DHT22;2524;54.364;10.072;2022-11-12T01:21:27;12.20;99.90
5011;DHT22;2524;54.364;10.072;2022-11-12T01:23:53;12.10;99.90
5011;DHT22;2524;54.364;10.072;2022-11-12T01:26:21;12.30;99.90
5011;DHT22;2524;54.364;10.072;2022-11-12T01:28:47;12.10;99.90
5011;DHT22;2524;54.364;10.072;2022-11-12T01:31:19;12.20;99.90
5011;DHT22;2524;54.364;10.072;2022-11-12T01:33:46;12.20;99.90
5011;DHT22;2524;54.364;10.072;2022-11-12T01:36:13;12.10;99.90
5011;DHT22;2524;54.364;10.072;2022-11-12T01:38:41;12.10;99.90
5011;DHT22;2524;54.364;10.072;2022-11-12T01:41:09;12.20;99.90
5011;DHT22;2524;54.364;10.072;2022-11-12T01:43:35;12.10;99.90
5011;DHT22;2524;54.364;10.072;2022-11-12T01:46:03;12.10;99.90
5011;DHT22;2524;54.364;10.072;2022-11-12T01:48:37;12.10;99.90
5011;DHT22;2524;54.364;10.072;2022-11-12T01:51:04;12.20;99.90
5011;DHT22;2524;54.364;10.072;2022-11-12T01:53:35;12.00;99.90
5011;DHT22;2524;54.364;10.072;2022-11-12T01:56:04;12.00;99.90
5011;DHT22;2524;54.364;10.072;2022-11-12T01:58:32;12.00;99.90
5011;DHT22;2524;54.364;10.072;2022-11-12T02:01:00;12.10;99.90
5011;DHT22;2524;54.364;10.072;2022-11-12T02:03:26;12.10;99.90
5011;DHT22;2524;54.364;10.072;2022-11-12T02:06:03;12.20;99.90
5011;DHT22;2524;54.364;10.072;2022-11-12T02:08:31;12.00;99.90
5011;DHT22;2524;54.364;10.072;2022-11-12T02:11:12;12.00;99.90
5011;DHT22;2524;54.364;10.072;2022-11-12T02:13:38;12.00;99.90
5011;DHT22;2524;54.364;10.072;2022-11-12T02:16:37;12.00;99.90
5011;DHT22;2524;54.364;10.072;2022-11-12T02:19:05;12.00;99.90
5011;DHT22;2524;54.364;10.072;2022-11-12T02:21:31;12.10;99.90
5011;DHT22;2524;54.364;10.072;2022-11-12T02:24:05;12.00;99.90
5011;DHT22;2524;54.364;10.072;2022-11-12T02:26:37;11.90;99.90
5011;DHT22;2524;54.364;10.072;2022-11-12T02:29:03;12.00;99.90
5011;DHT22;2524;54.364;10.072;2022-11-12T02:31:29;11.90;99.90
5011;DHT22;2524;54.364;10.072;2022-11-12T02:33:55;12.00;99.90
5011;DHT22;2524;54.364;10.072;2022-11-12T02:36:23;12.00;99.90
5011;DHT22;2524;54.364;10.072;2022-11-12T02:38:49;11.90;99.90
5011;DHT22;2524;54.364;10.072;2022-11-12T02:41:14;11.90;99.90
5011;DHT22;2524;54.364;10.072;2022-11-12T02:43:41;12.00;99.90
5011;DHT22;2524;54.364;10.072;2022-11-12T02:46:07;12.00;99.90
5011;DHT22;2524;54.364;10.072;2022-11-12T02:48:32;12.00;99.90
5011;DHT22;2524;54.364;10.072;2022-11-12T02:50:58;11.90;99.90
5011;DHT22;2524;54.364;10.072;2022-11-12T02:53:24;11.90;99.90
5011;DHT22;2524;54.364;10.072;2022-11-12T02:55:49;11.90;99.90
5011;DHT22;2524;54.364;10.072;2022-11-12T02:58:15;12.10;99.90
5011;DHT22;2524;54.364;10.072;2022-11-12T03:00:41;11.80;99.90
5011;DHT22;2524;54.364;10.072;2022-11-12T03:03:06;11.90;99.90
5011;DHT22;2524;54.364;10.072;2022-11-12T03:05:33;11.80;99.90
5011;DHT22;2524;54.364;10.072;2022-11-12T03:08:01;11.80;99.90
5011;DHT22;2524;54.364;10.072;2022-11-12T03:10:28;11.90;99.90
5011;DHT22;2524;54.364;10.072;2022-11-12T03:12:59;11.90;99.90
5011;DHT22;2524;54.364;10.072;2022-11-12T03:15:25;11.80;99.90
5011;DHT22;2524;54.364;10.072;2022-11-12T03:17:51;11.90;99.90
5011;DHT22;2524;54.364;10.072;2022-11-12T03:20:16;11.90;99.90
5011;DHT22;2524;54.364;10.072;2022-11-12T03:22:42;11.80;99.90
5011;DHT22;2524;54.364;10.072;2022-11-12T03:25:22;12.00;99.90
5011;DHT22;2524;54.364;10.072;2022-11-12T03:27:47;11.90;99.90
5011;DHT22;2524;54.364;10.072;2022-11-12T03:30:13;11.90;99.90
5011;DHT22;2524;54.364;10.072;2022-11-12T03:32:39;11.80;99.90
5011;DHT22;2524;54.364;10.072;2022-11-12T03:35:05;11.80;99.90
5011;DHT22;2524;54.364;10.072;2022-11-12T03:37:30;11.90;99.90
5011;DHT22;2524;54.364;10.072;2022-11-12T03:39:56;11.90;99.90
5011;DHT22;2524;54.364;10.072;2022-11-12T03:42:21;11.90;99.90
5011;DHT22;2524;54.364;10.072;2022-11-12T03:44:47;11.90;99.90
5011;DHT22;2524;54.364;10.072;2022-11-12T03:47:12;11.80;99.90
5011;DHT22;2524;54.364;10.072;2022-11-12T03:49:38;12.00;99.90
5011;DHT22;2524;54.364;10.072;2022-11-12T03:52:04;11.90;99.90
5011;DHT22;2524;54.364;10.072;2022-11-12T03:54:29;11.80;99.90
5011;DHT22;2524;54.364;10.072;2022-11-12T03:56:55;11.90;99.90
5011;DHT22;2524;54.364;10.072;2022-11-12T03:59:20;12.10;99.90
5011;DHT22;2524;54.364;10.072;2022-11-12T04:01:46;11.90;99.90
5011;DHT22;2524;54.364;10.072;2022-11-12T04:04:11;11.90;99.90
5011;DHT22;2524;54.364;10.072;2022-11-12T04:06:37;12.00;99.90
5011;DHT22;2524;54.364;10.072;2022-11-12T04:09:21;11.90;99.90
5011;DHT22;2524;54.364;10.072;2022-11-12T04:11:46;11.90;99.90
5011;DHT22;2524;54.364;10.072;2022-11-12T04:14:12;11.90;99.90
5011;DHT22;2524;54.364;10.072;2022-11-12T04:16:37;12.10;99.90
5011;DHT22;2524;54.364;10.072;2022-11-12T04:19:22;12.10;99.90
5011;DHT22;2524;54.364;10.072;2022-11-12T04:22:10;12.00;99.90
5011;DHT22;2524;54.364;10.072;2022-11-12T04:24:40;12.00;99.90
5011;DHT22;2524;54.364;10.072;2022-11-12T04:27:30;11.90;99.90
5011;DHT22;2524;54.364;10.072;2022-11-12T04:29:57;11.90;99.90
5011;DHT22;2524;54.364;10.072;2022-11-12T04:35:11;11.90;99.90
5011;DHT22;2524;54.364;10.072;2022-11-12T04:37:37;11.90;99.90
5011;DHT22;2524;54.364;10.072;2022-11-12T04:40:22;11.90;99.90
5011;DHT22;2524;54.364;10.072;2022-11-12T04:43:10;11.90;99.90
5011;DHT22;2524;54.364;10.072;2022-11-12T04:45:54;12.00;99.90
5011;DHT22;2524;54.364;10.072;2022-11-12T04:48:22;11.90;99.90
5011;DHT22;2524;54.364;10.072;2022-11-12T04:50:59;11.90;99.90
5011;DHT22;2524;54.364;10.072;2022-11-12T04:53:26;11.90;99.90
5011;DHT22;2524;54.364;10.072;2022-11-12T04:55:53;11.90;99.90
5011;DHT22;2524;54.364;10.072;2022-11-12T04:58:19;12.00;99.90
5011;DHT22;2524;54.364;10.072;2022-11-12T05:00:45;12.10;99.90
5011;DHT22;2524;54.364;10.072;2022-11-12T05:03:11;11.90;99.90
5011;DHT22;2524;54.364;10.072;2022-11-12T05:05:36;12.00;99.90
5011;DHT22;2524;54.364;10.072;2022-11-12T05:08:02;12.10;99.90
5011;DHT22;2524;54.364;10.072;2022-11-12T05:10:28;11.90;99.90
5011;DHT22;2524;54.364;10.072;2022-11-12T05:12:54;11.90;99.90
5011;DHT22;2524;54.364;10.072;2022-11-12T05:15:20;12.00;99.90
5011;DHT22;2524;54.364;10.072;2022-11-12T05:17:45;11.90;99.90
5011;DHT22;2524;54.364;10.072;2022-11-12T05:20:13;11.90;99.90
5011;DHT22;2524;54.364;10.072;2022-11-12T05:22:39;11.90;99.90
5011;DHT22;2524;54.364;10.072;2022-11-12T05:25:06;11.80;99.90
5011;DHT22;2524;54.364;10.072;2022-11-12T05:27:32;11.90;99.90
5011;DHT22;2524;54.364;10.072;2022-11-12T05:29:57;12.00;99.90
5011;DHT22;2524;54.364;10.072;2022-11-12T05:32:23;11.90;99.90
5011;DHT22;2524;54.364;10.072;2022-11-12T05:34:48;11.90;99.90
5011;DHT22;2524;54.364;10.072;2022-11-12T05:37:14;11.80;99.90
5011;DHT22;2524;54.364;10.072;2022-11-12T05:39:40;12.00;99.90
5011;DHT22;2524;54.364;10.072;2022-11-12T05:42:06;11.90;99.90
5011;DHT22;2524;54.364;10.072;2022-11-12T05:44:32;11.90;99.90
5011;DHT22;2524;54.364;10.072;2022-11-12T05:46:58;12.10;99.90
5011;DHT22;2524;54.364;10.072;2022-11-12T05:49:24;12.00;99.90
5011;DHT22;2524;54.364;10.072;2022-11-12T05:51:49;11.90;99.90
5011;DHT22;2524;54.364;10.072;2022-11-12T05:54:16;11.90;99.90
5011;DHT22;2524;54.364;10.072;2022-11-12T05:56:41;11.90;99.90
5011;DHT22;2524;54.364;10.072;2022-11-12T05:59:09;12.00;99.90
5011;DHT22;2524;54.364;10.072;2022-11-12T06:01:34;11.90;99.90
5011;DHT22;2524;54.364;10.072;2022-11-12T06:04:11;12.10;99.90
5011;DHT22;2524;54.364;10.072;2022-11-12T06:06:37;11.90;99.90
5011;DHT22;2524;54.364;10.072;2022-11-12T06:09:03;11.90;99.90
5011;DHT22;2524;54.364;10.072;2022-11-12T06:11:29;11.80;99.90
5011;DHT22;2524;54.364;10.072;2022-11-12T06:13:54;11.80;99.90
5011;DHT22;2524;54.364;10.072;2022-11-12T06:16:20;11.90;99.90
5011;DHT22;2524;54.364;10.072;2022-11-12T06:18:45;11.90;99.90
5011;DHT22;2524;54.364;10.072;2022-11-12T06:21:11;11.80;99.90
5011;DHT22;2524;54.364;10.072;2022-11-12T06:23:54;11.80;99.90
5011;DHT22;2524;54.364;10.072;2022-11-12T06:26:21;11.80;99.90
5011;DHT22;2524;54.364;10.072;2022-11-12T06:28:47;11.80;99.90
5011;DHT22;2524;54.364;10.072;2022-11-12T06:31:14;12.00;99.90
5011;DHT22;2524;54.364;10.072;2022-11-12T06:33:40;11.80;99.90
5011;DHT22;2524;54.364;10.072;2022-11-12T06:36:06;12.00;99.90
5011;DHT22;2524;54.364;10.072;2022-11-12T06:38:34;11.70;99.90
5011;DHT22;2524;54.364;10.072;2022-11-12T06:41:00;11.80;99.90
5011;DHT22;2524;54.364;10.072;2022-11-12T06:43:28;11.80;99.90
5011;DHT22;2524;54.364;10.072;2022-11-12T06:45:58;11.80;99.90
5011;DHT22;2524;54.364;10.072;2022-11-12T06:48:24;11.90;99.90
5011;DHT22;2524;54.364;10.072;2022-11-12T06:50:50;11.80;99.90
5011;DHT22;2524;54.364;10.072;2022-11-12T06:53:15;11.70;99.90
5011;DHT22;2524;54.364;10.072;2022-11-12T06:55:41;11.80;99.90
5011;DHT22;2524;54.364;10.072;2022-11-12T06:58:07;11.80;99.90
5011;DHT22;2524;54.364;10.072;2022-11-12T07:00:32;11.90;99.90
5011;DHT22;2524;54.364;10.072;2022-11-12T07:02:58;11.80;99.90
5011;DHT22;2524;54.364;10.072;2022-11-12T07:05:23;11.60;99.90
5011;DHT22;2524;54.364;10.072;2022-11-12T07:07:49;11.80;99.90
5011;DHT22;2524;54.364;10.072;2022-11-12T07:10:15;11.70;99.90
5011;DHT22;2524;54.364;10.072;2022-11-12T07:12:40;11.70;99.90
5011;DHT22;2524;54.364;10.072;2022-11-12T07:15:06;11.70;99.90
5011;DHT22;2524;54.364;10.072;2022-11-12T07:17:31;11.70;99.90
5011;DHT22;2524;54.364;10.072;2022-11-12T07:19:57;11.80;99.90
5011;DHT22;2524;54.364;10.072;2022-11-12T07:22:22;11.70;99.90
5011;DHT22;2524;54.364;10.072;2022-11-12T07:24:48;11.70;99.90
5011;DHT22;2524;54.364;10.072;2022-11-12T07:27:14;11.70;99.90
5011;DHT22;2524;54.364;10.072;2022-11-12T07:29:39;11.80;99.90
5011;DHT22;2524;54.364;10.072;2022-11-12T07:32:05;11.60;99.90
5011;DHT22;2524;54.364;10.072;2022-11-12T07:34:31;11.60;99.90
5011;DHT22;2524;54.364;10.072;2022-11-12T07:36:57;11.60;99.90
5011;DHT22;2524;54.364;10.072;2022-11-12T07:39:22;11.70;99.90
5011;DHT22;2524;54.364;10.072;2022-11-12T07:41:48;11.60;99.90
5011;DHT22;2524;54.364;10.072;2022-11-12T07:44:13;11.70;99.90
5011;DHT22;2524;54.364;10.072;2022-11-12T07:46:39;11.80;99.90
5011;DHT22;2524;54.364;10.072;2022-11-12T07:49:04;11.70;99.90
5011;DHT22;2524;54.364;10.072;2022-11-12T07:51:30;11.70;99.90
5011;DHT22;2524;54.364;10.072;2022-11-12T07:53:57;11.60;99.90
5011;DHT22;2524;54.364;10.072;2022-11-12T07:56:25;11.80;99.90
5011;DHT22;2524;54.364;10.072;2022-11-12T07:58:51;11.70;99.90
5011;DHT22;2524;54.364;10.072;2022-11-12T08:01:29;11.70;99.90
5011;DHT22;2524;54.364;10.072;2022-11-12T08:03:55;11.60;99.90
5011;DHT22;2524;54.364;10.072;2022-11-12T08:06:20;11.60;99.90
5011;DHT22;2524;54.364;10.072;2022-11-12T08:08:46;11.60;99.90
5011;DHT22;2524;54.364;10.072;2022-11-12T08:11:11;11.70;99.90
5011;DHT22;2524;54.364;10.072;2022-11-12T08:13:37;11.60;99.90
5011;DHT22;2524;54.364;10.072;2022-11-12T08:16:03;11.80;99.90
5011;DHT22;2524;54.364;10.072;2022-11-12T08:18:29;11.60;99.90
5011;DHT22;2524;54.364;10.072;2022-11-12T08:21:05;11.70;99.90
5011;DHT22;2524;54.364;10.072;2022-11-12T08:23:31;11.70;99.90
5011;DHT22;2524;54.364;10.072;2022-11-12T08:25:57;11.80;99.90
5011;DHT22;2524;54.364;10.072;2022-11-12T08:28:24;11.70;99.90
5011;DHT22;2524;54.364;10.072;2022-11-12T08:30:50;11.60;99.90
5011;DHT22;2524;54.364;10.072;2022-11-12T08:33:15;11.60;99.90
5011;DHT22;2524;54.364;10.072;2022-11-12T08:35:41;11.70;99.90
5011;DHT22;2524;54.364;10.072;2022-11-12T08:38:06;11.60;99.90
5011;DHT22;2524;54.364;10.072;2022-11-12T08:40:35;11.60;99.90
5011;DHT22;2524;54.364;10.072;2022-11-12T08:43:03;11.60;99.90
5011;DHT22;2524;54.364;10.072;2022-11-12T08:45:32;11.60;99.90
5011;DHT22;2524;54.364;10.072;2022-11-12T08:47:59;11.60;99.90
5011;DHT22;2524;54.364;10.072;2022-11-12T08:50:25;11.70;99.90
5011;DHT22;2524;54.364;10.072;2022-11-12T08:52:51;11.60;99.90
5011;DHT22;2524;54.364;10.072;2022-11-12T08:55:17;11.60;99.90
5011;DHT22;2524;54.364;10.072;2022-11-12T08:57:43;11.80;99.90
5011;DHT22;2524;54.364;10.072;2022-11-12T09:00:11;11.60;99.90
5011;DHT22;2524;54.364;10.072;2022-11-12T09:02:37;11.60;99.90
5011;DHT22;2524;54.364;10.072;2022-11-12T09:05:04;11.60;99.90
5011;DHT22;2524;54.364;10.072;2022-11-12T09:07:30;11.60;99.90
5011;DHT22;2524;54.364;10.072;2022-11-12T09:09:55;11.60;99.90
5011;DHT22;2524;54.364;10.072;2022-11-12T09:12:21;11.70;99.90
5011;DHT22;2524;54.364;10.072;2022-11-12T09:14:46;11.80;99.90
5011;DHT22;2524;54.364;10.072;2022-11-12T09:17:12;11.70;99.90
5011;DHT22;2524;54.364;10.072;2022-11-12T09:19:38;11.70;99.90
5011;DHT22;2524;54.364;10.072;2022-11-12T09:22:04;11.70;99.90
5011;DHT22;2524;54.364;10.072;2022-11-12T09:24:29;11.70;99.90
5011;DHT22;2524;54.364;10.072;2022-11-12T09:26:55;11.70;99.90
5011;DHT22;2524;54.364;10.072;2022-11-12T09:29:21;11.90;99.90
5011;DHT22;2524;54.364;10.072;2022-11-12T09:31:46;11.70;99.90
5011;DHT22;2524;54.364;10.072;2022-11-12T09:34:12;11.80;99.90
5011;DHT22;2524;54.364;10.072;2022-11-12T09:36:38;11.80;99.90
5011;DHT22;2524;54.364;10.072;2022-11-12T09:39:04;11.80;99.90
5011;DHT22;2524;54.364;10.072;2022-11-12T09:41:34;11.80;99.90
5011;DHT22;2524;54.364;10.072;2022-11-12T09:44:03;11.70;99.90
5011;DHT22;2524;54.364;10.072;2022-11-12T09:46:46;11.70;99.90
5011;DHT22;2524;54.364;10.072;2022-11-12T09:49:15;11.70;99.90
5011;DHT22;2524;54.364;10.072;2022-11-12T09:52:03;11.70;99.90
5011;DHT22;2524;54.364;10.072;2022-11-12T09:54:31;11.80;99.90
5011;DHT22;2524;54.364;10.072;2022-11-12T09:56:57;12.00;99.90
5011;DHT22;2524;54.364;10.072;2022-11-12T09:59:28;11.80;99.90
5011;DHT22;2524;54.364;10.072;2022-11-12T10:07:59;11.90;99.90
5011;DHT22;2524;54.364;10.072;2022-11-12T10:10:49;11.90;99.90
5011;DHT22;2524;54.364;10.072;2022-11-12T10:13:35;11.90;99.90
5011;DHT22;2524;54.364;10.072;2022-11-12T10:16:24;11.90;99.90
5011;DHT22;2524;54.364;10.072;2022-11-12T10:19:40;11.90;99.90
5011;DHT22;2524;54.364;10.072;2022-11-12T10:22:30;11.90;99.90
5011;DHT22;2524;54.364;10.072;2022-11-12T10:25:12;11.90;99.90
5011;DHT22;2524;54.364;10.072;2022-11-12T10:27:40;12.00;99.90
5011;DHT22;2524;54.364;10.072;2022-11-12T10:30:16;12.00;99.90
5011;DHT22;2524;54.364;10.072;2022-11-12T10:32:44;11.90;99.90
5011;DHT22;2524;54.364;10.072;2022-11-12T10:35:13;12.00;99.90
5011;DHT22;2524;54.364;10.072;2022-11-12T10:38:01;11.90;99.90
5011;DHT22;2524;54.364;10.072;2022-11-12T10:40:39;12.00;99.90
5011;DHT22;2524;54.364;10.072;2022-11-12T10:43:20;12.00;99.90
5011;DHT22;2524;54.364;10.072;2022-11-12T10:45:48;12.10;99.90
5011;DHT22;2524;54.364;10.072;2022-11-12T10:50:47;12.10;99.90
5011;DHT22;2524;54.364;10.072;2022-11-12T10:53:28;12.10;99.90
5011;DHT22;2524;54.364;10.072;2022-11-12T10:55:57;12.10;99.90
5011;DHT22;2524;54.364;10.072;2022-11-12T10:58:23;12.20;99.90
5011;DHT22;2524;54.364;10.072;2022-11-12T11:01:03;12.30;99.90
5011;DHT22;2524;54.364;10.072;2022-11-12T11:03:55;12.10;99.90
5011;DHT22;2524;54.364;10.072;2022-11-12T11:06:23;12.10;99.90
5011;DHT22;2524;54.364;10.072;2022-11-12T11:08:52;12.10;99.90
5011;DHT22;2524;54.364;10.072;2022-11-12T11:11:29;12.20;99.90
5011;DHT22;2524;54.364;10.072;2022-11-12T11:13:58;12.20;99.90
5011;DHT22;2524;54.364;10.072;2022-11-12T11:16:50;12.10;99.90
5011;DHT22;2524;54.364;10.072;2022-11-12T11:19:16;12.20;99.90
5011;DHT22;2524;54.364;10.072;2022-11-12T11:25:09;12.10;99.90
5011;DHT22;2524;54.364;10.072;2022-11-12T11:27:49;12.20;99.90
5011;DHT22;2524;54.364;10.072;2022-11-12T11:30:19;12.20;99.90
5011;DHT22;2524;54.364;10.072;2022-11-12T11:43:53;12.40;99.90
5011;DHT22;2524;54.364;10.072;2022-11-12T11:57:20;12.50;99.90
5011;DHT22;2524;54.364;10.072;2022-11-12T12:02:31;12.90;99.90
5011;DHT22;2524;54.364;10.072;2022-11-12T12:05:11;13.00;99.90
5011;DHT22;2524;54.364;10.072;2022-11-12T12:19:07;13.80;99.90
5011;DHT22;2524;54.364;10.072;2022-11-12T12:21:38;13.90;99.90
5011;DHT22;2524;54.364;10.072;2022-11-12T12:34:43;14.20;99.90
5011;DHT22;2524;54.364;10.072;2022-11-12T12:37:21;14.30;99.90
5011;DHT22;2524;54.364;10.072;2022-11-12T12:47:59;14.50;99.90
5011;DHT22;2524;54.364;10.072;2022-11-12T12:55:48;15.00;99.90
5011;DHT22;2524;54.364;10.072;2022-11-12T12:58:32;15.00;99.90
5011;DHT22;2524;54.364;10.072;2022-11-12T13:01:01;15.20;99.90
5011;DHT22;2524;54.364;10.072;2022-11-12T13:09:25;15.80;99.90
5011;DHT22;2524;54.364;10.072;2022-11-12T13:11:53;16.00;99.90
5011;DHT22;2524;54.364;10.072;2022-11-12T13:17:12;16.10;99.90
5011;DHT22;2524;54.364;10.072;2022-11-12T13:32:38;15.50;99.90
5011;DHT22;2524;54.364;10.072;2022-11-12T13:48:26;15.20;99.90
5011;DHT22;2524;54.364;10.072;2022-11-12T13:51:16;15.00;99.90
5011;DHT22;2524;54.364;10.072;2022-11-12T13:53:44;14.80;99.90
5011;DHT22;2524;54.364;10.072;2022-11-12T13:56:25;14.70;99.90
5011;DHT22;2524;54.364;10.072;2022-11-12T13:58:50;14.60;99.90
5011;DHT22;2524;54.364;10.072;2022-11-12T14:01:19;14.50;99.90
5011;DHT22;2524;54.364;10.072;2022-11-12T14:03:49;14.40;99.90
5011;DHT22;2524;54.364;10.072;2022-11-12T14:06:30;14.30;99.90
5011;DHT22;2524;54.364;10.072;2022-11-12T14:22:43;13.90;99.90
5011;DHT22;2524;54.364;10.072;2022-11-12T14:25:14;13.90;99.90
5011;DHT22;2524;54.364;10.072;2022-11-12T14:27:42;13.80;99.90
5011;DHT22;2524;54.364;10.072;2022-11-12T14:30:22;13.90;99.90
5011;DHT22;2524;54.364;10.072;2022-11-12T14:32:56;13.80;99.90
5011;DHT22;2524;54.364;10.072;2022-11-12T14:40:58;13.70;99.90
5011;DHT22;2524;54.364;10.072;2022-11-12T14:43:45;13.70;99.90
5011;DHT22;2524;54.364;10.072;2022-11-12T14:46:38;13.60;99.90
5011;DHT22;2524;54.364;10.072;2022-11-12T14:49:41;13.60;99.90
5011;DHT22;2524;54.364;10.072;2022-11-12T14:52:17;13.60;99.90
5011;DHT22;2524;54.364;10.072;2022-11-12T14:54:52;13.50;99.90
5011;DHT22;2524;54.364;10.072;2022-11-12T14:57:28;13.50;99.90
5011;DHT22;2524;54.364;10.072;2022-11-12T14:59:55;13.50;99.90
5011;DHT22;2524;54.364;10.072;2022-11-12T15:02:25;13.40;99.90
5011;DHT22;2524;54.364;10.072;2022-11-12T15:05:11;13.40;99.90
5011;DHT22;2524;54.364;10.072;2022-11-12T15:08:01;13.30;99.90
5011;DHT22;2524;54.364;10.072;2022-11-12T15:13:19;13.20;99.90
5011;DHT22;2524;54.364;10.072;2022-11-12T15:16:04;13.20;99.90
5011;DHT22;2524;54.364;10.072;2022-11-12T15:18:33;13.20;99.90
5011;DHT22;2524;54.364;10.072;2022-11-12T15:23:48;13.20;99.90
5011;DHT22;2524;54.364;10.072;2022-11-12T15:26:25;13.10;99.90
5011;DHT22;2524;54.364;10.072;2022-11-12T15:31:24;13.10;99.90
5011;DHT22;2524;54.364;10.072;2022-11-12T15:33:50;13.10;99.90
5011;DHT22;2524;54.364;10.072;2022-11-12T15:36:17;13.00;99.90
5011;DHT22;2524;54.364;10.072;2022-11-12T15:38:51;13.00;99.90
5011;DHT22;2524;54.364;10.072;2022-11-12T15:41:26;12.90;99.90
5011;DHT22;2524;54.364;10.072;2022-11-12T15:43:52;12.90;99.90
5011;DHT22;2524;54.364;10.072;2022-11-12T15:46:18;12.90;99.90
5011;DHT22;2524;54.364;10.072;2022-11-12T15:48:44;12.90;99.90
5011;DHT22;2524;54.364;10.072;2022-11-12T15:51:10;12.80;99.90
5011;DHT22;2524;54.364;10.072;2022-11-12T15:53:35;12.80;99.90
5011;DHT22;2524;54.364;10.072;2022-11-12T15:56:01;12.80;99.90
5011;DHT22;2524;54.364;10.072;2022-11-12T15:58:34;12.70;99.90
5011;DHT22;2524;54.364;10.072;2022-11-12T16:01:01;12.70;99.90
5011;DHT22;2524;54.364;10.072;2022-11-12T16:03:28;12.60;99.90
5011;DHT22;2524;54.364;10.072;2022-11-12T16:05:54;12.60;99.90
5011;DHT22;2524;54.364;10.072;2022-11-12T16:08:19;12.50;99.90
5011;DHT22;2524;54.364;10.072;2022-11-12T16:10:45;12.50;99.90
5011;DHT22;2524;54.364;10.072;2022-11-12T16:13:23;12.40;99.90
5011;DHT22;2524;54.364;10.072;2022-11-12T16:15:50;12.40;99.90
5011;DHT22;2524;54.364;10.072;2022-11-12T16:18:16;12.40;99.90
5011;DHT22;2524;54.364;10.072;2022-11-12T16:20:42;12.30;99.90
5011;DHT22;2524;54.364;10.072;2022-11-12T16:23:07;12.30;99.90
5011;DHT22;2524;54.364;10.072;2022-11-12T16:25:36;12.30;99.90
5011;DHT22;2524;54.364;10.072;2022-11-12T16:28:03;12.20;99.90
5011;DHT22;2524;54.364;10.072;2022-11-12T16:30:33;12.20;99.90
5011;DHT22;2524;54.364;10.072;2022-11-12T16:32:59;12.20;99.90
5011;DHT22;2524;54.364;10.072;2022-11-12T16:35:26;12.10;99.90
5011;DHT22;2524;54.364;10.072;2022-11-12T16:37:53;12.10;99.90
5011;DHT22;2524;54.364;10.072;2022-11-12T16:40:22;12.10;99.90
5011;DHT22;2524;54.364;10.072;2022-11-12T16:42:48;12.00;99.90
5011;DHT22;2524;54.364;10.072;2022-11-12T16:45:16;12.10;99.90
5011;DHT22;2524;54.364;10.072;2022-11-12T16:47:45;11.90;99.90
5011;DHT22;2524;54.364;10.072;2022-11-12T16:50:17;12.00;99.90
5011;DHT22;2524;54.364;10.072;2022-11-12T16:52:46;11.90;99.90
5011;DHT22;2524;54.364;10.072;2022-11-12T16:55:12;11.90;99.90
5011;DHT22;2524;54.364;10.072;2022-11-12T16:57:37;11.80;99.90
5011;DHT22;2524;54.364;10.072;2022-11-12T17:00:05;11.80;99.90
5011;DHT22;2524;54.364;10.072;2022-11-12T17:02:32;11.70;99.90
5011;DHT22;2524;54.364;10.072;2022-11-12T17:05:01;11.70;99.90
5011;DHT22;2524;54.364;10.072;2022-11-12T17:07:27;11.60;99.90
5011;DHT22;2524;54.364;10.072;2022-11-12T17:09:52;11.60;99.90
5011;DHT22;2524;54.364;10.072;2022-11-12T17:12:18;11.60;99.90
5011;DHT22;2524;54.364;10.072;2022-11-12T17:14:43;11.60;99.90
5011;DHT22;2524;54.364;10.072;2022-11-12T17:17:09;11.50;99.90
5011;DHT22;2524;54.364;10.072;2022-11-12T17:19:34;11.50;99.90
5011;DHT22;2524;54.364;10.072;2022-11-12T17:22:00;11.40;99.90
5011;DHT22;2524;54.364;10.072;2022-11-12T17:24:26;11.40;99.90
5011;DHT22;2524;54.364;10.072;2022-11-12T17:26:51;11.40;99.90
5011;DHT22;2524;54.364;10.072;2022-11-12T17:29:17;11.30;99.90
5011;DHT22;2524;54.364;10.072;2022-11-12T17:31:46;11.30;99.90
5011;DHT22;2524;54.364;10.072;2022-11-12T17:34:12;11.30;99.90
5011;DHT22;2524;54.364;10.072;2022-11-12T17:36:38;11.30;99.90
5011;DHT22;2524;54.364;10.072;2022-11-12T17:39:03;11.20;99.90
5011;DHT22;2524;54.364;10.072;2022-11-12T17:41:29;11.20;99.90
5011;DHT22;2524;54.364;10.072;2022-11-12T17:43:56;11.20;99.90
5011;DHT22;2524;54.364;10.072;2022-11-12T17:46:22;11.10;99.90
5011;DHT22;2524;54.364;10.072;2022-11-12T17:48:48;11.10;99.90
5011;DHT22;2524;54.364;10.072;2022-11-12T17:51:17;11.10;99.90
5011;DHT22;2524;54.364;10.072;2022-11-12T17:53:43;11.10;99.90
5011;DHT22;2524;54.364;10.072;2022-11-12T17:56:10;11.10;99.90
5011;DHT22;2524;54.364;10.072;2022-11-12T17:58:36;11.00;99.90
5011;DHT22;2524;54.364;10.072;2022-11-12T18:01:17;11.00;99.90
5011;DHT22;2524;54.364;10.072;2022-11-12T18:03:45;10.90;99.90
5011;DHT22;2524;54.364;10.072;2022-11-12T18:06:21;10.90;99.90
5011;DHT22;2524;54.364;10.072;2022-11-12T18:08:51;10.90;99.90
5011;DHT22;2524;54.364;10.072;2022-11-12T18:11:17;10.90;99.90
5011;DHT22;2524;54.364;10.072;2022-11-12T18:13:43;10.80;99.90
5011;DHT22;2524;54.364;10.072;2022-11-12T18:16:13;10.80;99.90